Portada
METAR-TAF:

METAR-TAF

Aeroports :

Shantou, Xina

latitud: 23-24N, longitud: 116-41E, altitud: 3 m

Observació

L'informe es va fer fa 21 minuts, a les 20:00 UTC
Vent 2 kt amb direcció variable
Temperatura 26°C
Humitat 100%
Pressió 1010 hPa
Visibilitat 10 km o més
Escasses núvols a una alçada de 2000 ft

METAR: ZGOW 012000Z VRB01MPS 9999 FEW020 26/26 Q1010 NOSIG

Hora: 04:21 (20:21 UTC)

Pronòstic

L'informe es va fer fa 3 hores i 39 minuts, a les 16:42 UTC
Pronòstic vàlid del 01 a les 18 UTC al 02 a les 18 UTC
Vent 6 kt del Sud
Visibilitat: 6000 m
Escasses núvols a una alçada de 2000 ft
Cel ennuvolat a una alçada de 4000 ft
Temporalment
l' 01 a les 18 UTC al 01 a les 24 UTC
Visibilitat: 2500 m
Escasses núvols a una alçada de 1200 ft
Escasses núvols a una alçada de 2600 ft, Cumulonimbus.
Cel ennuvolat a una alçada de 3000 ft
xàfecs de pluja, boirina

TAF: ZGOW 011642Z 0118/0218 19003MPS 6000 FEW020 BKN040 TX32/0206Z TN26/0122Z TEMPO 0118/0124 2500 SHRA BR FEW012 FEW026CB BKN030

Observacions i pronòstics meteorològics de més de 4000 aeroports (METAR i TAF).

Les estacions disponibles són els punts grocs i vermells al mapa.

Posi el ratolí al punt desitjat per veure el nom de l'estació.

Feu clic per veure les observacions i els pronòstics meteorològics.

Per canviar el mapa: feu clic els botons verds amb una creu de color negre per apropar; al botó verd amb un guió per allunyar la imatge; o en les fletxes verdes per a mapes adjacents.


METAR-TAF: